createdAt,value
2023-05-09T03:42:19.266Z,13.62
2023-05-09T03:43:19.250Z,13.64
2023-05-09T03:44:19.241Z,13.97
2023-05-09T03:45:19.249Z,13.95
2023-05-09T03:46:19.244Z,14.03
2023-05-09T03:47:19.208Z,14.06
2023-05-09T03:48:19.211Z,14.23
2023-05-09T03:49:19.190Z,13.78
2023-05-09T03:50:19.174Z,14.03
2023-05-09T03:51:19.166Z,13.87
2023-05-09T03:52:19.163Z,13.90
2023-05-09T03:53:19.260Z,14.46
2023-05-09T03:54:19.134Z,14.27
2023-05-09T03:55:19.125Z,13.92
2023-05-09T03:56:19.112Z,14.01
2023-05-09T03:57:19.103Z,14.04
2023-05-09T03:58:19.093Z,14.36
2023-05-09T03:59:19.081Z,14.38
2023-05-09T04:00:19.073Z,14.54
2023-05-09T04:01:19.061Z,14.11
2023-05-09T04:02:19.093Z,14.31
2023-05-09T04:03:19.131Z,14.38
2023-05-09T04:04:19.029Z,14.23
2023-05-09T04:05:19.029Z,14.69
2023-05-09T04:06:19.012Z,14.21
2023-05-09T04:07:18.996Z,14.53
2023-05-09T04:08:18.981Z,14.42
2023-05-09T04:09:19.108Z,14.26
2023-05-09T04:10:18.969Z,14.26
2023-05-09T04:11:19.173Z,14.61
2023-05-09T04:12:18.943Z,14.63
2023-05-09T04:13:18.949Z,15.00
2023-05-09T04:14:18.927Z,14.63
2023-05-09T04:15:18.917Z,15.00
2023-05-09T04:16:18.903Z,14.82
2023-05-09T04:17:18.895Z,14.67
2023-05-09T04:18:18.878Z,14.75
2023-05-09T04:19:19.107Z,15.00
2023-05-09T04:20:18.865Z,14.72
2023-05-09T04:21:18.848Z,15.00
2023-05-09T04:22:18.835Z,14.52
2023-05-09T04:23:18.832Z,14.57
2023-05-09T04:24:18.816Z,14.57
2023-05-09T04:25:18.925Z,14.97
2023-05-09T04:26:18.795Z,14.74
2023-05-09T04:27:18.788Z,14.48
2023-05-09T04:28:18.772Z,14.72
2023-05-09T04:29:18.963Z,14.78
2023-05-09T04:30:18.752Z,14.79
2023-05-09T04:31:18.850Z,14.96
2023-05-09T04:32:18.771Z,15.24
2023-05-09T04:33:18.722Z,14.71
2023-05-09T04:34:18.709Z,14.75
2023-05-09T04:35:20.485Z,15.03
2023-05-09T04:36:18.904Z,14.96
2023-05-09T04:37:18.682Z,14.54
2023-05-09T04:38:18.675Z,14.74
2023-05-09T04:39:18.656Z,14.59
2023-05-09T04:40:18.648Z,14.97
2023-05-09T04:41:18.752Z,14.61
2023-05-09T04:42:18.622Z,14.92
2023-05-09T04:43:18.613Z,14.96
2023-05-09T04:44:18.601Z,15.03
2023-05-09T04:45:18.596Z,14.85
2023-05-09T04:46:18.598Z,14.66
2023-05-09T04:47:18.784Z,14.93
2023-05-09T04:48:18.573Z,14.85
2023-05-09T04:49:18.558Z,15.02
2023-05-09T04:50:18.542Z,15.04
2023-05-09T04:51:18.527Z,14.56
2023-05-09T04:52:18.526Z,15.06
2023-05-09T04:53:18.507Z,14.78
2023-05-09T04:54:18.500Z,14.72
2023-05-09T04:55:18.483Z,14.96
2023-05-09T04:56:18.479Z,14.84
2023-05-09T04:57:19.269Z,14.89
2023-05-09T04:58:18.464Z,14.90
2023-05-09T04:59:18.454Z,15.27
2023-05-09T05:00:18.509Z,15.02
2023-05-09T05:01:18.453Z,15.21
2023-05-09T05:02:18.411Z,15.24
2023-05-09T05:03:18.402Z,15.10
2023-05-09T05:04:18.630Z,14.74
2023-05-09T05:05:24.666Z,14.94
2023-05-09T05:06:19.401Z,14.78
2023-05-09T05:07:18.359Z,15.02
2023-05-09T05:08:18.353Z,14.90
2023-05-09T05:09:18.535Z,15.32
2023-05-09T05:10:18.332Z,15.08
2023-05-09T05:11:18.312Z,14.69
2023-05-09T05:12:18.305Z,14.61
2023-05-09T05:13:18.526Z,15.08
2023-05-09T05:14:18.292Z,14.84
2023-05-09T05:15:18.483Z,15.14
2023-05-09T05:16:18.288Z,14.74
2023-05-09T05:17:18.426Z,14.86
2023-05-09T05:18:18.243Z,14.82
2023-05-09T05:19:18.229Z,14.77
2023-05-09T05:20:18.221Z,15.12
2023-05-09T05:21:18.206Z,14.97
2023-05-09T05:22:18.201Z,14.94
2023-05-09T05:23:18.410Z,14.94
2023-05-09T05:24:18.175Z,14.84
2023-05-09T05:25:18.365Z,15.10
2023-05-09T05:26:18.158Z,14.90
2023-05-09T05:27:18.143Z,14.96
2023-05-09T05:28:18.136Z,15.02
2023-05-09T05:29:18.246Z,15.14
2023-05-09T05:30:18.121Z,15.27
2023-05-09T05:31:18.166Z,15.17
2023-05-09T05:32:18.098Z,14.90
2023-05-09T05:33:18.080Z,15.18
2023-05-09T05:34:18.073Z,14.94
2023-05-09T05:35:18.061Z,15.36
2023-05-09T05:36:18.059Z,15.06
2023-05-09T05:37:18.051Z,15.08
2023-05-09T05:38:18.023Z,15.32
2023-05-09T05:39:18.024Z,15.29
2023-05-09T05:40:18.003Z,15.06
2023-05-09T05:41:17.985Z,14.94
2023-05-09T05:42:18.189Z,14.99
2023-05-09T05:43:17.968Z,15.22
2023-05-09T05:44:17.962Z,15.26
2023-05-09T05:45:18.120Z,15.12
2023-05-09T05:46:18.032Z,15.10
2023-05-09T05:47:17.928Z,15.29
2023-05-09T05:48:17.912Z,14.86
2023-05-09T05:49:17.904Z,15.19
2023-05-09T05:50:17.890Z,14.90
2023-05-09T05:51:17.877Z,15.30
2023-05-09T05:52:17.870Z,15.37
2023-05-09T05:53:17.858Z,15.29
2023-05-09T05:54:17.847Z,15.32
2023-05-09T05:55:17.990Z,15.21
2023-05-09T05:56:17.830Z,15.10
2023-05-09T05:57:17.820Z,15.32
2023-05-09T05:58:17.807Z,14.84
2023-05-09T05:59:17.792Z,15.19
2023-05-09T06:00:17.796Z,15.11
2023-05-09T06:01:17.790Z,15.51
2023-05-09T06:02:17.810Z,14.97
2023-05-09T06:03:17.823Z,15.17
2023-05-09T06:04:17.805Z,15.40
2023-05-09T06:05:17.729Z,15.29
2023-05-09T06:06:17.720Z,15.29
2023-05-09T06:07:17.708Z,15.02
2023-05-09T06:08:19.198Z,14.97
2023-05-09T06:09:17.689Z,15.55
2023-05-09T06:10:17.684Z,15.80
2023-05-09T06:11:17.666Z,15.40
2023-05-09T06:12:17.663Z,15.19
2023-05-09T06:13:17.708Z,15.62
2023-05-09T06:14:17.644Z,15.71
2023-05-09T06:15:17.846Z,15.49
2023-05-09T06:16:19.938Z,15.56
2023-05-09T06:17:18.103Z,15.73
2023-05-09T06:18:17.792Z,15.71
2023-05-09T06:19:17.581Z,15.42
2023-05-09T06:20:17.569Z,15.89
2023-05-09T06:21:17.564Z,15.95
2023-05-09T06:22:17.755Z,16.04
2023-05-09T06:23:17.535Z,15.91
2023-05-09T06:24:31.858Z,15.81
2023-05-09T06:25:18.547Z,15.92
2023-05-09T06:26:17.509Z,15.68
2023-05-09T06:27:17.494Z,16.04
2023-05-09T06:28:17.482Z,15.78
2023-05-09T06:29:17.470Z,15.66
2023-05-09T06:30:25.607Z,15.78
2023-05-09T06:31:18.504Z,15.91
2023-05-09T06:32:17.441Z,15.99
2023-05-09T06:33:17.547Z,15.91
2023-05-09T06:34:17.421Z,16.25
2023-05-09T06:35:17.409Z,15.68
2023-05-09T06:36:17.397Z,15.27
2023-05-09T06:37:17.393Z,15.78
2023-05-09T06:38:17.381Z,16.17
2023-05-09T06:39:17.367Z,15.95
2023-05-09T06:40:17.388Z,15.80
2023-05-09T06:41:17.355Z,15.34
2023-05-09T06:42:17.332Z,15.78
2023-05-09T06:43:17.320Z,15.92
2023-05-09T06:44:17.309Z,16.10
2023-05-09T06:45:17.646Z,15.67
2023-05-09T06:46:17.314Z,15.96
2023-05-09T06:47:17.280Z,16.14
2023-05-09T06:48:17.265Z,16.13
2023-05-09T06:49:17.473Z,16.01
2023-05-09T06:50:17.243Z,16.14
2023-05-09T06:51:17.230Z,15.84
2023-05-09T06:52:17.227Z,15.96
2023-05-09T06:53:17.215Z,16.10
2023-05-09T06:54:17.200Z,15.68
2023-05-09T06:55:17.369Z,16.24
2023-05-09T06:56:19.491Z,16.08
2023-05-09T06:57:17.164Z,16.43
2023-05-09T06:58:17.162Z,16.56
2023-05-09T06:59:17.140Z,16.18
2023-05-09T07:00:17.137Z,16.39
2023-05-09T07:01:17.148Z,16.65
2023-05-09T07:02:17.311Z,16.35
2023-05-09T07:03:17.111Z,16.62
2023-05-09T07:04:17.114Z,16.54
2023-05-09T07:05:17.562Z,16.72
2023-05-09T07:06:17.079Z,16.53
2023-05-09T07:07:17.063Z,16.50
2023-05-09T07:08:17.053Z,16.46
2023-05-09T07:09:17.042Z,16.51
2023-05-09T07:10:17.027Z,16.26
2023-05-09T07:11:17.018Z,16.66
2023-05-09T07:12:17.008Z,17.02
2023-05-09T07:13:17.038Z,16.79
2023-05-09T07:14:16.987Z,16.81
2023-05-09T07:15:28.792Z,16.92
2023-05-09T07:16:18.052Z,16.83
2023-05-09T07:17:23.295Z,16.36
2023-05-09T07:18:17.974Z,16.43
2023-05-09T07:19:16.940Z,16.36
2023-05-09T07:20:16.931Z,16.81
2023-05-09T07:21:17.027Z,16.53
2023-05-09T07:22:16.966Z,16.46
2023-05-09T07:23:16.894Z,16.65
2023-05-09T07:24:16.886Z,16.86
2023-05-09T07:25:17.052Z,16.68
2023-05-09T07:26:16.861Z,16.95
2023-05-09T07:27:16.852Z,16.61
2023-05-09T07:28:16.844Z,16.71
2023-05-09T07:29:16.829Z,16.77
2023-05-09T07:30:17.077Z,16.71
2023-05-09T07:31:16.817Z,16.58
2023-05-09T07:32:16.830Z,16.95
2023-05-09T07:33:16.785Z,16.64
2023-05-09T07:34:16.780Z,16.41
2023-05-09T07:35:16.973Z,17.07
2023-05-09T07:36:16.752Z,17.00
2023-05-09T07:37:16.859Z,17.27
2023-05-09T07:38:16.740Z,17.36
2023-05-09T07:39:16.719Z,17.45
2023-05-09T07:40:17.000Z,17.62
2023-05-09T07:41:16.697Z,17.42
2023-05-09T07:42:16.707Z,17.76
2023-05-09T07:43:16.689Z,17.80
2023-05-09T07:44:16.677Z,17.36
2023-05-09T07:45:17.094Z,17.35
2023-05-09T07:46:16.683Z,17.85
2023-05-09T07:47:16.635Z,17.73
2023-05-09T07:48:16.624Z,17.57
2023-05-09T07:49:16.607Z,17.69
2023-05-09T07:50:16.603Z,17.58
2023-05-09T07:51:16.589Z,18.06
2023-05-09T07:52:16.587Z,18.86
2023-05-09T07:53:16.892Z,18.64
2023-05-09T07:54:16.563Z,18.27
2023-05-09T07:55:16.803Z,18.39
2023-05-09T07:56:16.549Z,18.25
2023-05-09T07:57:16.526Z,18.35
2023-05-09T07:58:16.515Z,18.41
2023-05-09T07:59:16.509Z,18.49
2023-05-09T08:00:16.583Z,17.93
2023-05-09T08:01:16.480Z,18.24
2023-05-09T08:02:16.530Z,18.12
2023-05-09T08:03:16.584Z,18.24
2023-05-09T08:04:16.471Z,18.03
2023-05-09T08:05:16.697Z,18.47
2023-05-09T08:06:16.434Z,18.30
2023-05-09T08:07:16.523Z,18.65
2023-05-09T08:08:16.406Z,18.82
2023-05-09T08:09:16.513Z,18.66
2023-05-09T08:10:16.404Z,18.28
2023-05-09T08:11:16.376Z,18.44
2023-05-09T08:12:16.412Z,18.76
2023-05-09T08:13:16.368Z,19.09
2023-05-09T08:14:16.349Z,19.24
2023-05-09T08:15:16.873Z,19.45
2023-05-09T08:16:16.397Z,19.48
2023-05-09T08:17:16.315Z,19.98
2023-05-09T08:18:16.305Z,19.89
2023-05-09T08:19:16.295Z,20.01
2023-05-09T08:20:16.286Z,19.09
2023-05-09T08:21:16.273Z,18.87
2023-05-09T08:22:16.265Z,18.65
2023-05-09T08:23:16.254Z,18.30
2023-05-09T08:24:16.248Z,18.66
2023-05-09T08:25:16.583Z,18.60
2023-05-09T08:26:16.228Z,18.79
2023-05-09T08:27:16.217Z,18.66
2023-05-09T08:28:16.403Z,18.84
2023-05-09T08:29:16.192Z,18.65
2023-05-09T08:30:16.183Z,18.62
2023-05-09T08:31:16.250Z,18.57
2023-05-09T08:32:16.162Z,18.49
2023-05-09T08:33:16.149Z,18.50
2023-05-09T08:34:16.166Z,18.65
2023-05-09T08:35:16.460Z,18.32
2023-05-09T08:36:16.120Z,18.60
2023-05-09T08:37:16.127Z,18.38
2023-05-09T08:38:16.108Z,18.47
2023-05-09T08:39:16.084Z,18.68
2023-05-09T08:40:16.357Z,18.74
2023-05-09T08:41:16.185Z,19.04
2023-05-09T08:42:16.081Z,18.71
2023-05-09T08:43:16.052Z,18.91
2023-05-09T08:44:16.037Z,18.74
2023-05-09T08:45:16.021Z,18.69
2023-05-09T08:46:16.036Z,18.51
2023-05-09T08:47:16.013Z,18.59
2023-05-09T08:48:16.197Z,18.32
2023-05-09T08:49:15.983Z,18.41
2023-05-09T08:50:16.259Z,18.59
2023-05-09T08:51:15.964Z,18.13
2023-05-09T08:52:15.949Z,18.87
2023-05-09T08:53:15.944Z,18.38
2023-05-09T08:54:15.926Z,18.72
2023-05-09T08:55:15.920Z,18.34
2023-05-09T08:56:16.107Z,18.91
2023-05-09T08:57:16.023Z,19.14
2023-05-09T08:58:15.889Z,19.09
2023-05-09T08:59:15.874Z,19.76
2023-05-09T09:00:17.956Z,19.59
2023-05-09T09:01:15.874Z,19.63
2023-05-09T09:02:15.919Z,19.79
2023-05-09T09:03:15.874Z,19.64
2023-05-09T09:04:15.984Z,19.64
2023-05-09T09:05:39.427Z,19.23
2023-05-09T09:06:17.039Z,19.41
2023-05-09T09:07:15.791Z,19.57
2023-05-09T09:08:15.984Z,19.41
2023-05-09T09:09:15.771Z,18.89
2023-05-09T09:10:15.934Z,19.15
2023-05-09T09:11:15.749Z,19.39
2023-05-09T09:12:15.758Z,19.71
2023-05-09T09:13:15.791Z,20.22
2023-05-09T09:14:15.723Z,20.53
2023-05-09T09:15:17.328Z,20.15
2023-05-09T09:16:15.715Z,20.55
2023-05-09T09:17:15.688Z,20.70
2023-05-09T09:18:15.678Z,19.85
2023-05-09T09:19:15.667Z,19.80
2023-05-09T09:20:15.866Z,19.67
2023-05-09T09:21:15.649Z,20.16
2023-05-09T09:22:15.649Z,20.47
2023-05-09T09:23:15.629Z,20.26
2023-05-09T09:24:15.619Z,20.01
2023-05-09T09:25:15.610Z,19.92
2023-05-09T09:26:15.603Z,19.64
2023-05-09T09:27:15.592Z,19.60
2023-05-09T09:28:15.571Z,19.78
2023-05-09T09:29:15.752Z,19.83
2023-05-09T09:30:15.762Z,19.64
2023-05-09T09:31:17.176Z,19.75
2023-05-09T09:32:15.614Z,20.08
2023-05-09T09:33:15.587Z,20.26
2023-05-09T09:34:15.512Z,20.75
2023-05-09T09:35:15.503Z,20.31
2023-05-09T09:36:15.491Z,20.41
2023-05-09T09:37:15.490Z,20.78
2023-05-09T09:38:15.489Z,21.02
2023-05-09T09:39:15.475Z,21.10
2023-05-09T09:40:15.670Z,21.42
2023-05-09T09:41:15.461Z,21.42
2023-05-09T09:42:15.429Z,20.92
2023-05-09T09:43:15.422Z,20.92
2023-05-09T09:44:15.417Z,20.68
2023-05-09T09:45:15.534Z,20.04
2023-05-09T09:46:15.650Z,19.63
2023-05-09T09:47:15.384Z,19.94
2023-05-09T09:48:15.373Z,19.79
2023-05-09T09:49:15.356Z,19.82
2023-05-09T09:50:15.526Z,20.50
2023-05-09T09:51:15.344Z,20.95
2023-05-09T09:52:15.327Z,21.15
2023-05-09T09:53:15.319Z,20.34
2023-05-09T09:54:15.327Z,19.95
2023-05-09T09:55:15.305Z,20.25
2023-05-09T09:56:15.292Z,20.12
2023-05-09T09:57:15.282Z,20.80
2023-05-09T09:58:15.265Z,20.70
2023-05-09T09:59:15.255Z,20.92
2023-05-09T10:00:15.368Z,20.92
2023-05-09T10:01:15.408Z,20.93
2023-05-09T10:02:15.221Z,20.71
2023-05-09T10:03:15.331Z,20.81
2023-05-09T10:04:15.269Z,20.67
2023-05-09T10:05:15.197Z,20.52
2023-05-09T10:06:15.178Z,20.55
2023-05-09T10:07:15.347Z,20.31
2023-05-09T10:08:15.165Z,20.52
2023-05-09T10:09:15.151Z,20.68
2023-05-09T10:10:15.373Z,21.00
2023-05-09T10:11:15.131Z,21.28
2023-05-09T10:12:15.117Z,20.87
2023-05-09T10:13:15.144Z,20.53
2023-05-09T10:14:15.110Z,20.40
2023-05-09T10:15:15.090Z,21.15
2023-05-09T10:16:15.128Z,21.64
2023-05-09T10:17:15.361Z,21.26
2023-05-09T10:18:15.413Z,20.71
2023-05-09T10:19:15.049Z,21.18
2023-05-09T10:20:15.290Z,21.33
2023-05-09T10:21:15.030Z,21.46
2023-05-09T10:22:15.015Z,21.43
2023-05-09T10:23:15.006Z,21.82
2023-05-09T10:24:15.001Z,21.86
2023-05-09T10:25:15.250Z,22.03
2023-05-09T10:26:14.970Z,21.64
2023-05-09T10:27:14.970Z,21.05
2023-05-09T10:28:14.953Z,21.02
2023-05-09T10:29:14.945Z,21.07
2023-05-09T10:30:14.930Z,20.71
2023-05-09T10:31:14.950Z,20.87
2023-05-09T10:32:14.911Z,20.75
2023-05-09T10:33:15.025Z,20.74
2023-05-09T10:34:14.891Z,20.16
2023-05-09T10:35:15.023Z,19.83
2023-05-09T10:36:14.869Z,19.75
2023-05-09T10:37:14.858Z,20.22
2023-05-09T10:38:14.847Z,19.89
2023-05-09T10:39:14.834Z,19.92
2023-05-09T10:40:14.827Z,20.10
2023-05-09T10:41:14.818Z,20.15
2023-05-09T10:42:14.803Z,20.01
2023-05-09T10:43:14.802Z,20.27
2023-05-09T10:44:14.787Z,19.97
2023-05-09T10:45:15.002Z,20.10
2023-05-09T10:46:14.809Z,20.07
2023-05-09T10:47:14.753Z,20.50
2023-05-09T10:48:14.747Z,20.25
2023-05-09T10:49:14.847Z,20.44
2023-05-09T10:50:14.722Z,20.26
2023-05-09T10:51:14.720Z,20.04
2023-05-09T10:52:14.702Z,19.89
2023-05-09T10:53:14.688Z,19.98
2023-05-09T10:54:14.678Z,20.04
2023-05-09T10:55:14.821Z,20.07
2023-05-09T10:56:14.654Z,20.25
2023-05-09T10:57:14.649Z,20.00
2023-05-09T10:58:14.850Z,20.12
2023-05-09T10:59:14.667Z,20.35
2023-05-09T11:00:14.633Z,20.13
2023-05-09T11:01:14.615Z,20.40
2023-05-09T11:02:14.600Z,20.49
2023-05-09T11:03:14.859Z,20.25
2023-05-09T11:04:14.763Z,20.35
2023-05-09T11:05:14.943Z,20.23
2023-05-09T11:06:14.553Z,20.34
2023-05-09T11:07:14.544Z,20.31
2023-05-09T11:08:14.532Z,20.50
2023-05-09T11:09:14.522Z,20.41
2023-05-09T11:10:14.510Z,20.44
2023-05-09T11:11:14.501Z,20.52
2023-05-09T11:12:14.493Z,20.41
2023-05-09T11:13:14.487Z,20.12
2023-05-09T11:14:14.469Z,20.67
2023-05-09T11:15:14.611Z,20.60
2023-05-09T11:16:14.463Z,20.78
2023-05-09T11:17:14.447Z,20.82
2023-05-09T11:18:14.428Z,21.05
2023-05-09T11:19:14.422Z,21.08
2023-05-09T11:20:14.406Z,20.87
2023-05-09T11:21:14.528Z,20.82
2023-05-09T11:22:14.399Z,21.15
2023-05-09T11:23:14.375Z,21.61
2023-05-09T11:24:14.372Z,21.75
2023-05-09T11:25:14.642Z,21.61
2023-05-09T11:26:14.345Z,21.85
2023-05-09T11:27:14.338Z,21.46
2023-05-09T11:28:14.322Z,21.68
2023-05-09T11:29:14.313Z,21.88
2023-05-09T11:30:14.409Z,20.99
2023-05-09T11:31:14.297Z,20.68
2023-05-09T11:32:14.321Z,20.84
2023-05-09T11:33:14.272Z,21.27
2023-05-09T11:34:14.259Z,21.14
2023-05-09T11:35:14.576Z,21.33
2023-05-09T11:36:14.242Z,21.33
2023-05-09T11:37:14.385Z,21.00
2023-05-09T11:38:14.222Z,20.50
2023-05-09T11:39:14.232Z,20.45
2023-05-09T11:40:14.211Z,20.23
2023-05-09T11:41:14.188Z,19.97
2023-05-09T11:42:14.179Z,20.34
2023-05-09T11:43:14.377Z,19.95
2023-05-09T11:44:14.359Z,20.02
2023-05-09T11:45:14.345Z,19.83
2023-05-09T11:46:14.162Z,19.90
2023-05-09T11:47:14.129Z,20.00
2023-05-09T11:48:14.114Z,20.17
2023-05-09T11:49:14.303Z,19.86
2023-05-09T11:50:14.126Z,20.04
2023-05-09T11:51:14.093Z,20.26
2023-05-09T11:52:14.078Z,20.37
2023-05-09T11:53:14.175Z,19.94
2023-05-09T11:54:14.053Z,20.16
2023-05-09T11:55:14.482Z,20.31
2023-05-09T11:56:14.030Z,20.00
2023-05-09T11:57:14.028Z,20.17
2023-05-09T11:58:14.010Z,20.12
2023-05-09T11:59:14.212Z,20.00
2023-05-09T12:00:14.185Z,19.89
2023-05-09T12:01:13.984Z,19.94
2023-05-09T12:02:13.997Z,19.89
2023-05-09T12:03:14.083Z,19.49
2023-05-09T12:04:13.977Z,20.13
2023-05-09T12:05:14.168Z,20.08
2023-05-09T12:06:13.961Z,19.97
2023-05-09T12:07:13.909Z,20.25
2023-05-09T12:08:13.898Z,20.52
2023-05-09T12:09:14.004Z,21.04
2023-05-09T12:10:13.876Z,20.42
2023-05-09T12:11:13.878Z,20.74
2023-05-09T12:12:13.868Z,20.22
2023-05-09T12:13:13.899Z,20.38
2023-05-09T12:14:13.831Z,20.34
2023-05-09T12:15:14.418Z,20.41
2023-05-09T12:16:13.867Z,20.13
2023-05-09T12:17:13.815Z,20.05
2023-05-09T12:18:14.042Z,20.22
2023-05-09T12:19:13.775Z,20.27
2023-05-09T12:20:13.762Z,20.49
2023-05-09T12:21:13.756Z,20.31
2023-05-09T12:22:13.743Z,20.75
2023-05-09T12:23:13.733Z,20.78
2023-05-09T12:24:13.719Z,20.75
2023-05-09T12:25:14.131Z,20.55
2023-05-09T12:26:13.697Z,20.84
2023-05-09T12:27:13.713Z,21.37
2023-05-09T12:28:13.686Z,21.26
2023-05-09T12:29:13.670Z,21.56
2023-05-09T12:30:13.665Z,21.66
2023-05-09T12:31:13.667Z,21.52
2023-05-09T12:32:13.634Z,21.55
2023-05-09T12:33:13.630Z,21.98
2023-05-09T12:34:13.623Z,22.10
2023-05-09T12:35:13.779Z,21.42
2023-05-09T12:36:13.620Z,21.77
2023-05-09T12:37:13.585Z,21.40
2023-05-09T12:38:13.571Z,21.24
2023-05-09T12:39:13.573Z,21.42
2023-05-09T12:40:13.581Z,20.78
2023-05-09T12:41:30.254Z,20.78
2023-05-09T12:42:14.565Z,21.21
2023-05-09T12:43:13.543Z,20.99
2023-05-09T12:44:13.713Z,21.28
2023-05-09T12:45:13.901Z,21.00
2023-05-09T12:46:13.513Z,21.30
2023-05-09T12:47:13.599Z,21.00
2023-05-09T12:48:13.472Z,21.28
2023-05-09T12:49:13.471Z,21.51
2023-05-09T12:50:13.577Z,21.64
2023-05-09T12:51:13.435Z,21.26
2023-05-09T12:52:13.427Z,21.49
2023-05-09T12:53:13.414Z,21.27
2023-05-09T12:54:13.418Z,21.42
2023-05-09T12:55:13.536Z,20.86
2023-05-09T12:56:13.384Z,21.15
2023-05-09T12:57:13.496Z,21.08
2023-05-09T12:58:13.361Z,21.14
2023-05-09T12:59:13.353Z,21.46
2023-05-09T13:00:13.382Z,21.10
2023-05-09T13:01:13.417Z,21.48
2023-05-09T13:02:13.357Z,21.45
2023-05-09T13:03:13.335Z,21.27
2023-05-09T13:04:13.306Z,20.70
2023-05-09T13:05:13.604Z,21.45
2023-05-09T13:06:13.275Z,21.40
2023-05-09T13:07:13.279Z,21.37
2023-05-09T13:08:13.254Z,21.14
2023-05-09T13:09:13.249Z,21.24
2023-05-09T13:10:13.318Z,21.28
2023-05-09T13:11:16.511Z,21.30
2023-05-09T13:12:13.222Z,21.53
2023-05-09T13:13:13.370Z,21.46
2023-05-09T13:14:13.195Z,21.58
2023-05-09T13:15:13.648Z,21.40
2023-05-09T13:16:15.000Z,21.04
2023-05-09T13:17:13.352Z,21.08
2023-05-09T13:18:13.190Z,21.04
2023-05-09T13:19:13.142Z,20.90
2023-05-09T13:20:13.511Z,21.43
2023-05-09T13:21:13.114Z,21.12
2023-05-09T13:22:13.114Z,20.93
2023-05-09T13:23:13.096Z,21.11
2023-05-09T13:24:13.097Z,21.36
2023-05-09T13:25:13.106Z,21.05
2023-05-09T13:26:13.086Z,21.21
2023-05-09T13:27:13.267Z,21.00
2023-05-09T13:28:13.048Z,21.02
2023-05-09T13:29:13.149Z,20.93
2023-05-09T13:30:13.212Z,20.99
2023-05-09T13:31:13.095Z,20.87
2023-05-09T13:32:13.010Z,20.86
2023-05-09T13:33:25.126Z,20.49
2023-05-09T13:34:14.011Z,20.93
2023-05-09T13:35:12.979Z,20.92
2023-05-09T13:36:12.984Z,20.65
2023-05-09T13:37:12.960Z,20.90
2023-05-09T13:38:12.951Z,20.95
2023-05-09T13:39:12.938Z,20.59
2023-05-09T13:40:13.187Z,20.90
2023-05-09T13:41:13.109Z,20.70
2023-05-09T13:42:12.911Z,20.65
2023-05-09T13:43:12.887Z,20.70
2023-05-09T13:44:12.878Z,20.93
2023-05-09T13:45:13.340Z,21.19
2023-05-09T13:46:12.898Z,21.33
2023-05-09T13:47:12.846Z,21.18
2023-05-09T13:48:12.887Z,21.19
2023-05-09T13:49:12.821Z,20.74
2023-05-09T13:50:13.065Z,20.92
2023-05-09T13:51:12.796Z,21.24
2023-05-09T13:52:12.788Z,20.81
2023-05-09T13:53:12.777Z,21.05
2023-05-09T13:54:12.765Z,21.04
2023-05-09T13:55:46.723Z,20.87
2023-05-09T13:56:46.661Z,21.04
2023-05-09T13:57:46.655Z,20.77
2023-05-09T13:58:46.642Z,20.82
2023-05-09T13:59:46.637Z,20.86
2023-05-09T14:00:46.656Z,20.81
2023-05-09T14:01:46.677Z,20.78
2023-05-09T14:02:46.652Z,20.50
2023-05-09T14:04:46.578Z,20.35
2023-05-09T14:05:46.609Z,20.22
2023-05-09T14:06:46.553Z,20.22
2023-05-09T14:07:46.548Z,19.82
2023-05-09T14:08:46.541Z,19.78
2023-05-09T14:09:48.104Z,19.57
2023-05-09T14:10:46.512Z,19.56
2023-05-09T14:11:46.506Z,19.29
2023-05-09T14:12:46.511Z,19.06
2023-05-09T14:13:46.490Z,19.04
2023-05-09T14:14:46.508Z,19.05
2023-05-09T14:15:46.502Z,19.06
2023-05-09T14:16:46.587Z,19.02
2023-05-09T14:17:46.482Z,19.11
2023-05-09T14:18:46.430Z,18.78
2023-05-09T14:19:46.419Z,18.97
2023-05-09T14:20:46.434Z,18.87
2023-05-09T14:21:46.415Z,18.57
2023-05-09T14:22:46.401Z,18.97
2023-05-09T14:23:46.389Z,18.91
2023-05-09T14:24:46.385Z,18.86
2023-05-09T14:25:46.359Z,18.74
2023-05-09T14:26:46.347Z,18.41
2023-05-09T14:27:46.338Z,18.34
2023-05-09T14:28:46.326Z,18.51
2023-05-09T14:29:46.347Z,18.28
2023-05-09T14:30:46.307Z,18.60
2023-05-09T14:31:46.319Z,18.50
2023-05-09T14:32:46.396Z,18.28
2023-05-09T14:33:46.277Z,18.15
2023-05-09T14:34:46.303Z,18.41
2023-05-09T14:35:46.256Z,17.86
2023-05-09T14:36:46.248Z,18.28
2023-05-09T14:37:46.233Z,17.98
2023-05-09T14:38:46.222Z,17.98
2023-05-09T14:39:46.222Z,18.47
2023-05-09T14:40:46.210Z,18.09
2023-05-09T14:41:46.194Z,18.13
2023-05-09T14:42:46.185Z,18.01
2023-05-09T14:43:46.177Z,18.16
2023-05-09T14:44:46.158Z,17.93
2023-05-09T14:45:46.149Z,17.57
2023-05-09T14:46:46.208Z,17.60
2023-05-09T14:47:46.171Z,18.06
2023-05-09T14:48:46.439Z,17.65
2023-05-09T14:49:46.111Z,17.88
2023-05-09T14:50:46.098Z,17.54
2023-05-09T14:51:46.095Z,17.55
2023-05-09T14:52:46.077Z,17.83
2023-05-09T14:53:46.072Z,17.45
2023-05-09T14:54:46.085Z,17.24
2023-05-09T14:55:46.060Z,17.10
2023-05-09T14:56:46.056Z,17.38
2023-05-09T14:57:46.032Z,17.73
2023-05-09T14:58:46.009Z,17.62
2023-05-09T14:59:46.005Z,17.32
2023-05-09T15:00:46.031Z,17.58
2023-05-09T15:01:46.016Z,17.33
2023-05-09T15:02:46.035Z,17.06
2023-05-09T15:03:45.987Z,16.92
2023-05-09T15:04:46.069Z,17.15
2023-05-09T15:05:45.939Z,16.95
2023-05-09T15:06:45.925Z,17.07
2023-05-09T15:07:45.918Z,17.02
2023-05-09T15:08:45.907Z,17.24
2023-05-09T15:09:45.906Z,17.15
2023-05-09T15:10:45.886Z,16.65
2023-05-09T15:11:48.134Z,16.86
2023-05-09T15:12:45.880Z,17.03
2023-05-09T15:13:45.856Z,16.66
2023-05-09T15:14:45.844Z,17.03
2023-05-09T15:15:45.840Z,16.72
2023-05-09T15:16:45.906Z,16.76
2023-05-09T15:17:45.815Z,16.86
2023-05-09T15:18:45.799Z,16.71
2023-05-09T15:19:45.793Z,16.79
2023-05-09T15:20:45.906Z,16.33
2023-05-09T15:21:45.772Z,16.33
2023-05-09T15:22:45.797Z,16.61
2023-05-09T15:23:45.759Z,16.24
2023-05-09T15:24:45.742Z,16.22
2023-05-09T15:25:45.730Z,16.31
2023-05-09T15:26:45.715Z,16.25
2023-05-09T15:27:45.707Z,16.44
2023-05-09T15:28:45.692Z,16.03
2023-05-09T15:29:45.686Z,16.41
2023-05-09T15:30:45.884Z,16.22
2023-05-09T15:31:45.660Z,16.33
2023-05-09T15:32:45.683Z,16.21
2023-05-09T15:33:45.642Z,16.28
2023-05-09T15:34:45.635Z,16.44
2023-05-09T15:35:45.621Z,16.16
2023-05-09T15:36:45.731Z,16.39
2023-05-09T15:37:45.639Z,16.10
2023-05-09T15:38:45.593Z,16.07
2023-05-09T15:39:45.593Z,16.39
2023-05-09T15:40:45.571Z,15.70
2023-05-09T15:41:45.576Z,16.07
2023-05-09T15:42:45.551Z,16.13
2023-05-09T15:43:45.541Z,15.77
2023-05-09T15:44:45.731Z,15.36
2023-05-09T15:45:45.850Z,15.76
2023-05-09T15:46:45.518Z,15.73
2023-05-09T15:47:45.558Z,15.45
2023-05-09T15:48:45.489Z,15.32
2023-05-09T15:49:45.476Z,15.34
2023-05-09T15:50:45.469Z,15.42
2023-05-09T15:51:45.468Z,15.66
2023-05-09T15:52:45.576Z,15.27
2023-05-09T15:53:45.445Z,15.52
2023-05-09T15:54:45.565Z,15.40
2023-05-09T15:55:45.418Z,15.30
2023-05-09T15:56:45.404Z,15.48
2023-05-09T15:57:45.393Z,15.56
2023-05-09T15:58:45.383Z,15.55
2023-05-09T15:59:45.375Z,15.19
2023-05-09T16:00:45.380Z,15.59
2023-05-09T16:01:45.381Z,15.52
2023-05-09T16:02:45.490Z,15.49
2023-05-09T16:03:45.458Z,15.52
2023-05-09T16:04:45.321Z,15.27
2023-05-09T16:05:45.350Z,15.34
2023-05-09T16:06:45.303Z,15.43
2023-05-09T16:07:45.296Z,15.53
2023-05-09T16:08:45.405Z,15.40
2023-05-09T16:09:45.271Z,15.76
2023-05-09T16:10:45.261Z,15.26
2023-05-09T16:11:45.255Z,14.93
2023-05-09T16:12:45.279Z,15.24
2023-05-09T16:13:45.229Z,15.45
2023-05-09T16:14:45.216Z,15.62
2023-05-09T16:15:45.263Z,15.73
2023-05-09T16:16:45.195Z,15.30
2023-05-09T16:17:45.197Z,15.55
2023-05-09T16:18:45.186Z,15.32
2023-05-09T16:19:45.176Z,15.11
2023-05-09T16:20:45.154Z,15.18
2023-05-09T16:21:45.183Z,15.42
2023-05-09T16:22:45.133Z,15.42
2023-05-09T16:23:45.122Z,15.30
2023-05-09T16:24:45.248Z,15.21
2023-05-09T16:25:45.130Z,15.39
2023-05-09T16:26:45.091Z,15.39
2023-05-09T16:27:45.083Z,15.42
2023-05-09T16:28:45.069Z,15.27
2023-05-09T16:29:45.060Z,15.49
2023-05-09T16:30:45.049Z,15.40
2023-05-09T16:31:45.159Z,15.68
2023-05-09T16:32:45.066Z,15.32
2023-05-09T16:33:45.018Z,15.14
2023-05-09T16:34:45.003Z,15.21
2023-05-09T16:35:45.000Z,15.14